sensor_id;sensor_type;location;lat;lon;timestamp;pressure;altitude;pressure_sealevel;temperature;humidity
70781;BME280;72716;48.814;2.126;2024-01-11T11:51:07;101561.78;;;3.14;70.09
70781;BME280;72716;48.814;2.126;2024-01-11T11:53:34;101570.06;;;3.44;71.11
70781;BME280;72716;48.814;2.126;2024-01-11T11:56:01;101568.69;;;2.79;73.09
70781;BME280;72716;48.814;2.126;2024-01-11T11:58:30;101566.09;;;1.77;77.32
70781;BME280;72716;48.814;2.126;2024-01-11T12:00:58;101575.28;;;1.57;79.35
70781;BME280;72716;48.814;2.126;2024-01-11T12:03:30;101568.72;;;1.15;81.60
70781;BME280;72716;48.814;2.126;2024-01-11T12:06:03;101566.69;;;0.94;85.30
70781;BME280;72716;48.814;2.126;2024-01-11T12:08:29;101571.84;;;0.94;85.72
70781;BME280;72716;48.814;2.126;2024-01-11T12:10:54;101577.34;;;1.01;87.48
70781;BME280;72716;48.814;2.126;2024-01-11T12:13:20;101568.59;;;1.29;86.33
70781;BME280;72716;48.814;2.126;2024-01-11T12:15:46;101560.09;;;1.47;84.34
70781;BME280;72716;48.814;2.126;2024-01-11T12:18:11;101558.22;;;1.76;83.10
70781;BME280;72716;48.814;2.126;2024-01-11T12:20:37;101554.63;;;1.89;84.51
70781;BME280;72716;48.814;2.126;2024-01-11T12:23:02;101554.56;;;2.04;82.92
70781;BME280;72716;48.814;2.126;2024-01-11T12:25:28;101548.03;;;1.94;82.11
70781;BME280;72716;48.814;2.126;2024-01-11T12:27:54;101554.56;;;1.87;81.63
70781;BME280;72716;48.814;2.126;2024-01-11T12:30:26;101560.91;;;1.77;82.46
70781;BME280;72716;48.814;2.126;2024-01-11T12:32:55;101555.84;;;1.79;82.50
70781;BME280;72716;48.814;2.126;2024-01-11T12:35:21;101555.09;;;1.98;81.54
70781;BME280;72716;48.814;2.126;2024-01-11T12:37:58;101543.88;;;1.81;81.07
70781;BME280;72716;48.814;2.126;2024-01-11T12:40:24;101543.28;;;1.53;81.97
70781;BME280;72716;48.814;2.126;2024-01-11T12:42:52;101552.06;;;1.57;82.87
70781;BME280;72716;48.814;2.126;2024-01-11T12:45:18;101548.09;;;1.96;82.57
70781;BME280;72716;48.814;2.126;2024-01-11T12:47:44;101543.53;;;1.58;81.68
70781;BME280;72716;48.814;2.126;2024-01-11T12:50:10;101535.34;;;1.99;81.73
70781;BME280;72716;48.814;2.126;2024-01-11T12:52:37;101540.19;;;2.42;81.04
70781;BME280;72716;48.814;2.126;2024-01-11T12:55:04;101534.22;;;2.10;79.23
70781;BME280;72716;48.814;2.126;2024-01-11T12:57:29;101534.00;;;2.57;79.81
70781;BME280;72716;48.814;2.126;2024-01-11T13:00:09;101531.00;;;2.14;78.79
70781;BME280;72716;48.814;2.126;2024-01-11T13:02:35;101515.50;;;2.14;79.14
70781;BME280;72716;48.814;2.126;2024-01-11T13:05:01;101515.69;;;2.87;80.88
70781;BME280;72716;48.814;2.126;2024-01-11T13:07:27;101512.91;;;2.31;79.24
70781;BME280;72716;48.814;2.126;2024-01-11T13:09:53;101509.97;;;2.58;78.45
70781;BME280;72716;48.814;2.126;2024-01-11T13:12:18;101519.28;;;2.21;79.00
70781;BME280;72716;48.814;2.126;2024-01-11T13:14:46;101519.28;;;2.21;78.27
70781;BME280;72716;48.814;2.126;2024-01-11T13:17:11;101516.03;;;2.77;77.64
70781;BME280;72716;48.814;2.126;2024-01-11T13:19:37;101517.94;;;2.81;76.58
70781;BME280;72716;48.814;2.126;2024-01-11T13:22:03;101525.03;;;2.67;77.60
70781;BME280;72716;48.814;2.126;2024-01-11T13:24:28;101523.44;;;2.52;78.48
70781;BME280;72716;48.814;2.126;2024-01-11T13:26:54;101521.09;;;2.22;79.61
70781;BME280;72716;48.814;2.126;2024-01-11T13:29:20;101517.75;;;2.25;78.42
70781;BME280;72716;48.814;2.126;2024-01-11T13:31:45;101521.72;;;2.18;78.87
70781;BME280;72716;48.814;2.126;2024-01-11T13:34:11;101518.97;;;2.32;79.20
70781;BME280;72716;48.814;2.126;2024-01-11T13:36:36;101527.63;;;2.50;79.05
70781;BME280;72716;48.814;2.126;2024-01-11T13:39:01;101522.47;;;2.85;77.96
70781;BME280;72716;48.814;2.126;2024-01-11T13:41:27;101534.16;;;2.60;77.69
70781;BME280;72716;48.814;2.126;2024-01-11T13:43:53;101541.34;;;2.66;77.71
70781;BME280;72716;48.814;2.126;2024-01-11T13:46:19;101529.88;;;2.96;77.38
70781;BME280;72716;48.814;2.126;2024-01-11T13:48:45;101526.25;;;2.57;77.29
70781;BME280;72716;48.814;2.126;2024-01-11T13:51:10;101542.25;;;2.85;77.51
70781;BME280;72716;48.814;2.126;2024-01-11T13:53:38;101539.63;;;2.32;78.13
70781;BME280;72716;48.814;2.126;2024-01-11T13:56:03;101535.88;;;2.78;77.26
70781;BME280;72716;48.814;2.126;2024-01-11T13:58:29;101533.56;;;3.01;76.81
70781;BME280;72716;48.814;2.126;2024-01-11T14:00:54;101534.03;;;3.86;74.81
70781;BME280;72716;48.814;2.126;2024-01-11T14:03:20;101525.41;;;3.30;73.10
70781;BME280;72716;48.814;2.126;2024-01-11T14:05:45;101535.97;;;2.79;73.92
70781;BME280;72716;48.814;2.126;2024-01-11T14:08:10;101538.81;;;2.84;74.75
70781;BME280;72716;48.814;2.126;2024-01-11T14:10:36;101533.78;;;3.06;74.65
70781;BME280;72716;48.814;2.126;2024-01-11T14:13:02;101523.88;;;3.33;72.20
70781;BME280;72716;48.814;2.126;2024-01-11T14:15:28;101520.41;;;3.14;71.90
70781;BME280;72716;48.814;2.126;2024-01-11T14:17:53;101526.03;;;3.24;70.61
70781;BME280;72716;48.814;2.126;2024-01-11T14:20:20;101526.16;;;2.90;71.54
70781;BME280;72716;48.814;2.126;2024-01-11T14:22:46;101514.44;;;2.62;71.29
70781;BME280;72716;48.814;2.126;2024-01-11T14:25:23;101513.03;;;2.86;73.11
70781;BME280;72716;48.814;2.126;2024-01-11T14:27:50;101519.00;;;3.03;71.28
70781;BME280;72716;48.814;2.126;2024-01-11T14:30:15;101526.63;;;3.18;71.56
70781;BME280;72716;48.814;2.126;2024-01-11T14:32:41;101532.66;;;3.00;70.72
70781;BME280;72716;48.814;2.126;2024-01-11T14:35:08;101535.09;;;2.79;72.38
70781;BME280;72716;48.814;2.126;2024-01-11T14:37:35;101532.19;;;2.73;73.73
70781;BME280;72716;48.814;2.126;2024-01-11T14:40:01;101543.13;;;2.67;74.15
70781;BME280;72716;48.814;2.126;2024-01-11T14:42:27;101539.16;;;2.57;74.04
70781;BME280;72716;48.814;2.126;2024-01-11T14:44:53;101546.13;;;2.41;75.43
70781;BME280;72716;48.814;2.126;2024-01-11T14:47:18;101554.03;;;2.61;75.88
70781;BME280;72716;48.814;2.126;2024-01-11T14:49:45;101550.50;;;2.26;76.75
70781;BME280;72716;48.814;2.126;2024-01-11T14:52:10;101557.13;;;2.37;76.96
70781;BME280;72716;48.814;2.126;2024-01-11T14:54:36;101553.56;;;2.52;76.92
70781;BME280;72716;48.814;2.126;2024-01-11T14:57:01;101557.38;;;2.09;78.21
70781;BME280;72716;48.814;2.126;2024-01-11T14:59:27;101555.22;;;2.16;78.88
70781;BME280;72716;48.814;2.126;2024-01-11T15:01:53;101557.13;;;1.87;79.51
70781;BME280;72716;48.814;2.126;2024-01-11T15:04:18;101567.09;;;1.81;80.96
70781;BME280;72716;48.814;2.126;2024-01-11T15:06:43;101571.41;;;1.80;81.11
70781;BME280;72716;48.814;2.126;2024-01-11T15:09:10;101573.13;;;1.33;81.97
70781;BME280;72716;48.814;2.126;2024-01-11T15:11:38;101577.31;;;1.31;83.86
70781;BME280;72716;48.814;2.126;2024-01-11T15:14:05;101581.13;;;1.23;84.44
70781;BME280;72716;48.814;2.126;2024-01-11T15:16:30;101578.94;;;1.14;85.49
70781;BME280;72716;48.814;2.126;2024-01-11T15:18:56;101576.47;;;1.15;86.22
70781;BME280;72716;48.814;2.126;2024-01-11T15:21:21;101576.44;;;1.00;86.19
70781;BME280;72716;48.814;2.126;2024-01-11T15:23:46;101577.78;;;0.93;87.01
70781;BME280;72716;48.814;2.126;2024-01-11T15:26:12;101588.63;;;1.03;88.23
70781;BME280;72716;48.814;2.126;2024-01-11T15:28:37;101581.59;;;0.85;87.71
70781;BME280;72716;48.814;2.126;2024-01-11T15:31:03;101591.13;;;0.86;87.55
70781;BME280;72716;48.814;2.126;2024-01-11T15:33:28;101595.22;;;0.82;87.85
70781;BME280;72716;48.814;2.126;2024-01-11T15:35:54;101593.31;;;0.80;88.79
70781;BME280;72716;48.814;2.126;2024-01-11T15:38:19;101599.03;;;0.89;89.29
70781;BME280;72716;48.814;2.126;2024-01-11T15:40:45;101590.75;;;0.80;88.95
70781;BME280;72716;48.814;2.126;2024-01-11T15:43:10;101594.91;;;0.78;89.46
70781;BME280;72716;48.814;2.126;2024-01-11T15:45:35;101605.69;;;0.70;89.75
70781;BME280;72716;48.814;2.126;2024-01-11T15:48:01;101613.50;;;1.17;96.44
70781;BME280;72716;48.814;2.126;2024-01-11T15:50:27;101613.84;;;0.93;91.12
70781;BME280;72716;48.814;2.126;2024-01-11T15:52:53;101609.84;;;0.68;91.14
70781;BME280;72716;48.814;2.126;2024-01-11T15:55:18;101626.81;;;0.65;91.19
70781;BME280;72716;48.814;2.126;2024-01-11T15:57:45;101624.03;;;0.62;91.16
70781;BME280;72716;48.814;2.126;2024-01-11T16:00:12;101618.41;;;0.54;91.71
70781;BME280;72716;48.814;2.126;2024-01-11T16:02:37;101624.63;;;0.42;92.15
70781;BME280;72716;48.814;2.126;2024-01-11T16:05:05;101619.09;;;0.36;92.23
70781;BME280;72716;48.814;2.126;2024-01-11T16:07:31;101623.28;;;0.34;91.80
70781;BME280;72716;48.814;2.126;2024-01-11T16:09:56;101618.44;;;0.25;92.71
70781;BME280;72716;48.814;2.126;2024-01-11T16:12:21;101628.81;;;0.27;92.88
70781;BME280;72716;48.814;2.126;2024-01-11T16:14:48;101619.66;;;0.17;93.42
70781;BME280;72716;48.814;2.126;2024-01-11T16:17:13;101628.06;;;0.14;93.52
70781;BME280;72716;48.814;2.126;2024-01-11T16:19:39;101620.34;;;0.14;94.17
70781;BME280;72716;48.814;2.126;2024-01-11T16:22:04;101627.69;;;0.08;94.95
70781;BME280;72716;48.814;2.126;2024-01-11T16:24:30;101621.78;;;-0.05;94.51
70781;BME280;72716;48.814;2.126;2024-01-11T16:26:55;101621.22;;;-0.14;95.88
70781;BME280;72716;48.814;2.126;2024-01-11T16:29:20;101636.56;;;-0.16;96.80
70781;BME280;72716;48.814;2.126;2024-01-11T16:31:46;101643.00;;;-0.22;96.55
70781;BME280;72716;48.814;2.126;2024-01-11T16:34:11;101651.31;;;-0.27;96.64
70781;BME280;72716;48.814;2.126;2024-01-11T16:36:37;101647.72;;;-0.29;97.17
70781;BME280;72716;48.814;2.126;2024-01-11T16:39:03;101659.41;;;-0.34;97.55
70781;BME280;72716;48.814;2.126;2024-01-11T16:41:35;101647.25;;;-0.37;98.17
70781;BME280;72716;48.814;2.126;2024-01-11T16:44:02;101655.25;;;-0.45;98.71
70781;BME280;72716;48.814;2.126;2024-01-11T16:46:29;101662.88;;;-0.47;99.47
70781;BME280;72716;48.814;2.126;2024-01-11T16:48:55;101675.63;;;-0.48;99.83
70781;BME280;72716;48.814;2.126;2024-01-11T16:51:20;101675.31;;;-0.53;100.00
70781;BME280;72716;48.814;2.126;2024-01-11T16:53:46;101670.06;;;-0.55;100.00
70781;BME280;72716;48.814;2.126;2024-01-11T16:56:11;101683.34;;;-0.62;100.00
70781;BME280;72716;48.814;2.126;2024-01-11T16:58:37;101676.41;;;-0.63;100.00
70781;BME280;72716;48.814;2.126;2024-01-11T17:01:03;101673.53;;;-0.68;100.00
70781;BME280;72716;48.814;2.126;2024-01-11T17:03:28;101675.00;;;-0.71;100.00
70781;BME280;72716;48.814;2.126;2024-01-11T17:05:54;101683.53;;;-0.72;100.00
70781;BME280;72716;48.814;2.126;2024-01-11T17:08:19;101682.91;;;-0.68;100.00
70781;BME280;72716;48.814;2.126;2024-01-11T17:10:44;101687.66;;;-0.75;100.00
70781;BME280;72716;48.814;2.126;2024-01-11T17:13:10;101683.69;;;-0.83;100.00
70781;BME280;72716;48.814;2.126;2024-01-11T17:15:35;101682.09;;;-0.81;100.00
70781;BME280;72716;48.814;2.126;2024-01-11T17:18:00;101681.69;;;-0.87;100.00
70781;BME280;72716;48.814;2.126;2024-01-11T17:20:26;101685.94;;;-0.88;100.00
70781;BME280;72716;48.814;2.126;2024-01-11T17:22:52;101687.75;;;-0.87;100.00
70781;BME280;72716;48.814;2.126;2024-01-11T17:25:17;101681.69;;;-0.87;100.00
70781;BME280;72716;48.814;2.126;2024-01-11T17:27:43;101689.09;;;-0.92;99.95
70781;BME280;72716;48.814;2.126;2024-01-11T17:30:08;101690.19;;;-0.88;100.00
70781;BME280;72716;48.814;2.126;2024-01-11T17:32:34;101695.00;;;-0.93;100.00
70781;BME280;72716;48.814;2.126;2024-01-11T17:34:59;101696.50;;;-0.96;100.00
70781;BME280;72716;48.814;2.126;2024-01-11T17:37:25;101704.78;;;-1.01;100.00
70781;BME280;72716;48.814;2.126;2024-01-11T17:39:51;101703.00;;;-1.02;100.00
70781;BME280;72716;48.814;2.126;2024-01-11T17:42:17;101712.19;;;-1.05;100.00
70781;BME280;72716;48.814;2.126;2024-01-11T17:44:44;101707.91;;;-1.05;100.00
70781;BME280;72716;48.814;2.126;2024-01-11T17:47:09;101709.53;;;-1.07;100.00
70781;BME280;72716;48.814;2.126;2024-01-11T17:49:35;101703.28;;;-1.11;100.00
70781;BME280;72716;48.814;2.126;2024-01-11T17:52:03;101709.09;;;-1.13;100.00
70781;BME280;72716;48.814;2.126;2024-01-11T17:54:28;101714.22;;;-1.13;100.00
70781;BME280;72716;48.814;2.126;2024-01-11T17:56:54;101714.47;;;-1.22;100.00
70781;BME280;72716;48.814;2.126;2024-01-11T17:59:19;101723.19;;;-1.20;100.00
70781;BME280;72716;48.814;2.126;2024-01-11T18:01:44;101713.69;;;-1.21;100.00
70781;BME280;72716;48.814;2.126;2024-01-11T18:04:10;101723.88;;;-1.23;100.00
70781;BME280;72716;48.814;2.126;2024-01-11T18:06:37;101720.50;;;-1.22;100.00
70781;BME280;72716;48.814;2.126;2024-01-11T18:09:03;101730.69;;;-1.23;100.00
70781;BME280;72716;48.814;2.126;2024-01-11T18:11:29;101736.47;;;-1.26;100.00
70781;BME280;72716;48.814;2.126;2024-01-11T18:13:56;101735.25;;;-1.31;100.00
70781;BME280;72716;48.814;2.126;2024-01-11T18:16:22;101736.66;;;-1.36;100.00
70781;BME280;72716;48.814;2.126;2024-01-11T18:18:48;101735.75;;;-1.37;100.00
70781;BME280;72716;48.814;2.126;2024-01-11T18:21:14;101753.41;;;-1.41;100.00
70781;BME280;72716;48.814;2.126;2024-01-11T18:23:40;101737.88;;;-1.43;100.00
70781;BME280;72716;48.814;2.126;2024-01-11T18:26:07;101746.25;;;-1.45;100.00
70781;BME280;72716;48.814;2.126;2024-01-11T18:28:32;101746.25;;;-1.45;100.00
70781;BME280;72716;48.814;2.126;2024-01-11T18:30:58;101746.25;;;-1.45;100.00
70781;BME280;72716;48.814;2.126;2024-01-11T18:33:23;101749.16;;;-1.53;100.00
70781;BME280;72716;48.814;2.126;2024-01-11T18:35:49;101749.88;;;-1.55;100.00
70781;BME280;72716;48.814;2.126;2024-01-11T18:38:14;101747.94;;;-1.58;100.00
70781;BME280;72716;48.814;2.126;2024-01-11T18:40:40;101749.31;;;-1.63;100.00
70781;BME280;72716;48.814;2.126;2024-01-11T18:43:06;101757.00;;;-1.63;100.00
70781;BME280;72716;48.814;2.126;2024-01-11T18:45:32;101762.72;;;-1.67;100.00
70781;BME280;72716;48.814;2.126;2024-01-11T18:47:57;101753.69;;;-1.74;100.00
70781;BME280;72716;48.814;2.126;2024-01-11T18:50:23;101760.28;;;-1.78;100.00
70781;BME280;72716;48.814;2.126;2024-01-11T18:52:48;101760.38;;;-1.76;100.00
70781;BME280;72716;48.814;2.126;2024-01-11T18:55:14;101770.44;;;-1.79;100.00
70781;BME280;72716;48.814;2.126;2024-01-11T18:57:41;101762.94;;;-1.76;100.00
70781;BME280;72716;48.814;2.126;2024-01-11T19:00:06;101764.38;;;-1.80;100.00
70781;BME280;72716;48.814;2.126;2024-01-11T19:02:32;101772.88;;;-1.81;100.00
70781;BME280;72716;48.814;2.126;2024-01-11T19:04:57;101769.31;;;-1.83;100.00
70781;BME280;72716;48.814;2.126;2024-01-11T19:07:23;101775.19;;;-1.84;100.00
70781;BME280;72716;48.814;2.126;2024-01-11T19:09:48;101772.75;;;-1.83;100.00
70781;BME280;72716;48.814;2.126;2024-01-11T19:12:13;101777.75;;;-1.84;100.00
70781;BME280;72716;48.814;2.126;2024-01-11T19:14:39;101777.09;;;-1.20;100.00
70781;BME280;72716;48.814;2.126;2024-01-11T19:17:04;101774.56;;;-1.32;100.00
70781;BME280;72716;48.814;2.126;2024-01-11T19:19:31;101780.09;;;-1.63;100.00
70781;BME280;72716;48.814;2.126;2024-01-11T19:21:56;101782.69;;;-1.75;100.00
70781;BME280;72716;48.814;2.126;2024-01-11T19:24:21;101784.91;;;-1.80;100.00
70781;BME280;72716;48.814;2.126;2024-01-11T19:26:47;101782.03;;;-1.85;100.00
70781;BME280;72716;48.814;2.126;2024-01-11T19:29:16;101784.59;;;-1.85;100.00
70781;BME280;72716;48.814;2.126;2024-01-11T19:31:42;101783.59;;;-1.87;100.00
70781;BME280;72716;48.814;2.126;2024-01-11T19:34:07;101791.16;;;-1.88;100.00
70781;BME280;72716;48.814;2.126;2024-01-11T19:36:40;101788.59;;;-1.88;100.00
70781;BME280;72716;48.814;2.126;2024-01-11T19:39:11;101787.59;;;-1.90;100.00
70781;BME280;72716;48.814;2.126;2024-01-11T19:41:37;101784.91;;;-1.92;100.00
70781;BME280;72716;48.814;2.126;2024-01-11T19:44:02;101798.66;;;-1.91;100.00
70781;BME280;72716;48.814;2.126;2024-01-11T19:46:29;101794.28;;;-1.92;100.00
70781;BME280;72716;48.814;2.126;2024-01-11T19:48:55;101802.19;;;-1.89;100.00
70781;BME280;72716;48.814;2.126;2024-01-11T19:51:20;101801.09;;;-1.93;100.00
70781;BME280;72716;48.814;2.126;2024-01-11T19:53:46;101802.09;;;-1.91;100.00
70781;BME280;72716;48.814;2.126;2024-01-11T19:56:21;101800.97;;;-1.95;100.00
70781;BME280;72716;48.814;2.126;2024-01-11T19:58:48;101804.31;;;-1.96;100.00
70781;BME280;72716;48.814;2.126;2024-01-11T20:01:14;101802.56;;;-1.97;100.00
70781;BME280;72716;48.814;2.126;2024-01-11T20:03:40;101799.19;;;-1.96;100.00
70781;BME280;72716;48.814;2.126;2024-01-11T20:06:06;101804.09;;;-1.99;100.00
70781;BME280;72716;48.814;2.126;2024-01-11T20:08:33;101809.22;;;-1.99;100.00
70781;BME280;72716;48.814;2.126;2024-01-11T20:10:58;101809.22;;;-1.99;100.00
70781;BME280;72716;48.814;2.126;2024-01-11T20:13:24;101802.06;;;-2.03;100.00
70781;BME280;72716;48.814;2.126;2024-01-11T20:15:49;101800.31;;;-2.04;100.00
70781;BME280;72716;48.814;2.126;2024-01-11T20:18:15;101807.69;;;-1.97;100.00
70781;BME280;72716;48.814;2.126;2024-01-11T20:20:41;101800.22;;;-1.20;100.00
70781;BME280;72716;48.814;2.126;2024-01-11T20:23:06;101810.13;;;-1.62;100.00
70781;BME280;72716;48.814;2.126;2024-01-11T20:25:32;101808.81;;;-1.81;100.00
70781;BME280;72716;48.814;2.126;2024-01-11T20:27:57;101806.56;;;-1.88;100.00
70781;BME280;72716;48.814;2.126;2024-01-11T20:30:22;101801.88;;;-1.94;100.00
70781;BME280;72716;48.814;2.126;2024-01-11T20:32:49;101802.56;;;-1.97;100.00
70781;BME280;72716;48.814;2.126;2024-01-11T20:35:14;101808.44;;;-1.98;100.00
70781;BME280;72716;48.814;2.126;2024-01-11T20:37:40;101807.69;;;-1.97;100.00
70781;BME280;72716;48.814;2.126;2024-01-11T20:40:08;101809.34;;;-1.97;100.00
70781;BME280;72716;48.814;2.126;2024-01-11T20:42:34;101795.41;;;-2.01;100.00
70781;BME280;72716;48.814;2.126;2024-01-11T20:45:00;101809.78;;;-2.03;100.00
70781;BME280;72716;48.814;2.126;2024-01-11T20:47:25;101802.97;;;-2.02;100.00
70781;BME280;72716;48.814;2.126;2024-01-11T20:49:51;101807.22;;;-2.03;100.00
70781;BME280;72716;48.814;2.126;2024-01-11T20:52:16;101800.97;;;-1.95;100.00
70781;BME280;72716;48.814;2.126;2024-01-11T20:54:42;101802.78;;;-1.20;100.00
70781;BME280;72716;48.814;2.126;2024-01-11T20:57:07;101804.75;;;-1.65;100.00
70781;BME280;72716;48.814;2.126;2024-01-11T20:59:33;101805.56;;;-1.90;100.00
70781;BME280;72716;48.814;2.126;2024-01-11T21:02:00;101805.88;;;-1.98;100.00
70781;BME280;72716;48.814;2.126;2024-01-11T21:04:25;101803.88;;;-2.02;100.00
70781;BME280;72716;48.814;2.126;2024-01-11T21:06:51;101798.50;;;-2.05;100.00
70781;BME280;72716;48.814;2.126;2024-01-11T21:09:17;101803.41;;;-2.08;100.00
70781;BME280;72716;48.814;2.126;2024-01-11T21:11:42;101805.00;;;-2.10;100.00
70781;BME280;72716;48.814;2.126;2024-01-11T21:14:07;101794.50;;;-2.13;100.00
70781;BME280;72716;48.814;2.126;2024-01-11T21:16:33;101802.97;;;-2.14;100.00
70781;BME280;72716;48.814;2.126;2024-01-11T21:18:58;101812.31;;;-2.15;100.00
70781;BME280;72716;48.814;2.126;2024-01-11T21:21:24;101803.75;;;-2.15;100.00
70781;BME280;72716;48.814;2.126;2024-01-11T21:23:51;101811.47;;;-2.15;100.00
70781;BME280;72716;48.814;2.126;2024-01-11T21:26:27;101807.66;;;-2.21;100.00
70781;BME280;72716;48.814;2.126;2024-01-11T21:28:53;101814.56;;;-2.20;100.00
70781;BME280;72716;48.814;2.126;2024-01-11T21:31:20;101809.31;;;-2.21;100.00
70781;BME280;72716;48.814;2.126;2024-01-11T21:33:46;101805.84;;;-2.22;100.00
70781;BME280;72716;48.814;2.126;2024-01-11T21:36:12;101814.13;;;-2.26;100.00
70781;BME280;72716;48.814;2.126;2024-01-11T21:38:37;101812.09;;;-2.30;100.00
70781;BME280;72716;48.814;2.126;2024-01-11T21:41:03;101815.56;;;-2.29;100.00
70781;BME280;72716;48.814;2.126;2024-01-11T21:43:28;101818.00;;;-2.31;100.00
70781;BME280;72716;48.814;2.126;2024-01-11T21:45:53;101823.88;;;-2.32;100.00
70781;BME280;72716;48.814;2.126;2024-01-11T21:48:19;101817.63;;;-2.36;100.00
70781;BME280;72716;48.814;2.126;2024-01-11T21:50:44;101827.00;;;-2.36;100.00
70781;BME280;72716;48.814;2.126;2024-01-11T21:53:09;101823.44;;;-2.38;100.00
70781;BME280;72716;48.814;2.126;2024-01-11T21:55:35;101815.84;;;-2.37;100.00
70781;BME280;72716;48.814;2.126;2024-01-11T21:58:03;101807.38;;;-2.36;100.00
70781;BME280;72716;48.814;2.126;2024-01-11T22:00:30;101813.94;;;-2.39;100.00
70781;BME280;72716;48.814;2.126;2024-01-11T22:02:58;101821.19;;;-1.14;100.00
70781;BME280;72716;48.814;2.126;2024-01-11T22:05:23;101818.69;;;-1.62;100.00
70781;BME280;72716;48.814;2.126;2024-01-11T22:07:49;101819.78;;;-2.18;100.00
70781;BME280;72716;48.814;2.126;2024-01-11T22:10:14;101829.72;;;-2.23;100.00
70781;BME280;72716;48.814;2.126;2024-01-11T22:12:39;101823.34;;;-2.28;100.00
70781;BME280;72716;48.814;2.126;2024-01-11T22:15:05;101823.03;;;-2.33;100.00
70781;BME280;72716;48.814;2.126;2024-01-11T22:17:30;101817.41;;;-2.39;100.00
70781;BME280;72716;48.814;2.126;2024-01-11T22:19:56;101825.78;;;-2.41;100.00
70781;BME280;72716;48.814;2.126;2024-01-11T22:22:21;101825.53;;;-2.45;100.00
70781;BME280;72716;48.814;2.126;2024-01-11T22:24:46;101822.31;;;-2.42;100.00
70781;BME280;72716;48.814;2.126;2024-01-11T22:27:12;101825.66;;;-2.43;100.00
70781;BME280;72716;48.814;2.126;2024-01-11T22:29:37;101824.75;;;-2.44;100.00
70781;BME280;72716;48.814;2.126;2024-01-11T22:32:03;101824.75;;;-2.44;100.00
70781;BME280;72716;48.814;2.126;2024-01-11T22:34:28;101826.41;;;-2.44;100.00
70781;BME280;72716;48.814;2.126;2024-01-11T22:36:53;101834.09;;;-2.44;100.00
70781;BME280;72716;48.814;2.126;2024-01-11T22:39:19;101831.44;;;-2.46;100.00
70781;BME280;72716;48.814;2.126;2024-01-11T22:41:44;101824.75;;;-2.44;100.00
70781;BME280;72716;48.814;2.126;2024-01-11T22:44:10;101827.31;;;-2.44;100.00
70781;BME280;72716;48.814;2.126;2024-01-11T22:46:35;101824.75;;;-2.44;100.00
70781;BME280;72716;48.814;2.126;2024-01-11T22:49:00;101826.53;;;-2.42;100.00
70781;BME280;72716;48.814;2.126;2024-01-11T22:51:29;101830.09;;;-2.40;100.00
70781;BME280;72716;48.814;2.126;2024-01-11T22:53:55;101821.63;;;-2.39;100.00
70781;BME280;72716;48.814;2.126;2024-01-11T22:56:20;101828.44;;;-2.40;100.00
70781;BME280;72716;48.814;2.126;2024-01-11T22:58:46;101824.44;;;-2.36;100.00
70781;BME280;72716;48.814;2.126;2024-01-11T23:01:11;101819.06;;;-2.39;100.00
70781;BME280;72716;48.814;2.126;2024-01-11T23:03:36;101818.09;;;-2.41;100.00
70781;BME280;72716;48.814;2.126;2024-01-11T23:06:02;101812.69;;;-2.45;100.00
70781;BME280;72716;48.814;2.126;2024-01-11T23:08:27;101815.94;;;-2.47;100.00
70781;BME280;72716;48.814;2.126;2024-01-11T23:10:52;101819.28;;;-2.48;100.00
70781;BME280;72716;48.814;2.126;2024-01-11T23:13:18;101823.53;;;-2.49;100.00
70781;BME280;72716;48.814;2.126;2024-01-11T23:15:44;101819.19;;;-2.50;100.00
70781;BME280;72716;48.814;2.126;2024-01-11T23:18:09;101816.97;;;-2.45;100.00
70781;BME280;72716;48.814;2.126;2024-01-11T23:20:35;101817.41;;;-2.39;100.00
70781;BME280;72716;48.814;2.126;2024-01-11T23:23:00;101811.38;;;-2.39;100.00
70781;BME280;72716;48.814;2.126;2024-01-11T23:25:25;101813.28;;;-2.37;100.00
70781;BME280;72716;48.814;2.126;2024-01-11T23:27:51;101804.81;;;-2.36;100.00
70781;BME280;72716;48.814;2.126;2024-01-11T23:30:16;101803.38;;;-2.32;100.00
70781;BME280;72716;48.814;2.126;2024-01-11T23:32:41;101818.34;;;-2.26;100.00
70781;BME280;72716;48.814;2.126;2024-01-11T23:35:07;101810.97;;;-2.22;100.00
70781;BME280;72716;48.814;2.126;2024-01-11T23:37:32;101815.34;;;-2.21;100.00
70781;BME280;72716;48.814;2.126;2024-01-11T23:39:58;101818.34;;;-2.14;100.00
